Flight Track Log - Related Links

Times and Time Zones

All times are in EST time to prevent confusion due to time zone crossing. See the N225SB flight status page for this flight to view local times or setup timezone preferences in your user account.

Time Position Orientation Groundspeed Altitude Reporting Facility
EST Latitude Longitude Course Direction KTS MPH feet Rate Location/Type
Sun 11:02:02 AM 33.8833 -84.3000 267° West 91 105 1,200  Level Atlanta TRACON
Sun 11:04:00 AM 33.8350 -84.0298 84° East  Level FlightAware Approximate
Sun 11:11:00 AM 34.2377 -83.2053 48° Northeast  Level FlightAware Approximate
Sun 11:12:00 AM 34.3095 -83.0952 54° Northeast  Level FlightAware Approximate
Sun 11:13:00 AM 34.3749 -82.9795 51° Northeast  Level FlightAware Approximate
Sun 11:14:00 AM 34.4478 -82.8701 51° Northeast  Level FlightAware Approximate
Sun 11:15:00 AM 34.5203 -82.7603 55° Northeast  Level FlightAware Approximate
Sun 11:16:00 AM 34.5865 -82.6445 55° Northeast  Level FlightAware Approximate
Sun 11:17:00 AM 34.6537 -82.5296 55° Northeast  Level FlightAware Approximate
Sun 11:18:00 AM 34.7226 -82.4161 51° Northeast  Level FlightAware Approximate
Sun 11:19:00 AM 34.7932 -82.3041 53° Northeast  Level FlightAware Approximate
Sun 11:20:00 AM 34.8633 -82.1915 53° Northeast  Level FlightAware Approximate
Sun 11:21:00 AM 34.9333 -82.0786 53° Northeast  Level FlightAware Approximate
Sun 11:22:00 AM 35.0032 -81.9656 53° Northeast  Level FlightAware Approximate
Sun 11:23:00 AM 35.0648 -81.8460 61° Northeast  Level FlightAware Approximate
Sun 11:24:00 AM 35.1237 -81.7241 56° Northeast  Level FlightAware Approximate
Sun 11:25:00 AM 35.1885 -81.6064 58° Northeast  Level FlightAware Approximate
Sun 11:26:00 AM 35.2492 -81.4853 58° Northeast  Level FlightAware Approximate
Sun 11:27:00 AM 35.3097 -81.3641 59° Northeast  Level FlightAware Approximate
Sun 11:28:00 AM 35.3737 -81.2455 55° Northeast  Level FlightAware Approximate
Sun 11:29:00 AM 35.4399 -81.1286 55° Northeast  Level FlightAware Approximate
Sun 11:30:00 AM 35.5060 -81.0115 55° Northeast  Level FlightAware Approximate
Sun 11:31:00 AM 35.5707 -80.8932 58° Northeast  Level FlightAware Approximate
Sun 11:32:00 AM 35.6328 -80.7726 58° Northeast  Level FlightAware Approximate
Sun 11:33:00 AM 35.6948 -80.6519 58° Northeast  Level FlightAware Approximate
Sun 11:34:00 AM 35.7566 -80.5310 58° Northeast  Level FlightAware Approximate
Sun 11:35:00 AM 35.8183 -80.4099 58° Northeast  Level FlightAware Approximate
Sun 11:36:00 AM 35.8799 -80.2886 58° Northeast  Level FlightAware Approximate
Sun 11:37:00 AM 35.9414 -80.1671 58° Northeast  Level FlightAware Approximate
Sun 11:38:00 AM 35.9989 -80.0426 61° Northeast  Level FlightAware Approximate
Sun 11:39:00 AM 36.0636 -79.9244 48° Northeast  Level FlightAware Approximate
Sun 11:40:00 AM 36.1403 -79.8167 49° Northeast  Level FlightAware Approximate
Sun 11:41:00 AM 36.2170 -79.7088 49° Northeast  Level FlightAware Approximate
Sun 11:42:00 AM 36.2935 -79.6007 49° Northeast  Level FlightAware Approximate
Sun 11:43:00 AM 36.3699 -79.4923 49° Northeast  Level FlightAware Approximate
Sun 11:44:00 AM 36.4463 -79.3838 49° Northeast  Level FlightAware Approximate
Sun 11:45:00 AM 36.5225 -79.2750 49° Northeast  Level FlightAware Approximate
Sun 11:46:00 AM 36.5989 -79.1663 49° Northeast  Level FlightAware Approximate
Sun 11:47:00 AM 36.6752 -79.0573 49° Northeast  Level FlightAware Approximate
Sun 11:48:00 AM 36.7514 -78.9481 49° Northeast  Level FlightAware Approximate
Sun 11:49:00 AM 36.8274 -78.8388 49° Northeast  Level FlightAware Approximate
Sun 11:50:00 AM 36.9034 -78.7292 49° Northeast  Level FlightAware Approximate
Sun 11:51:00 AM 36.9793 -78.6193 49° Northeast  Level FlightAware Approximate
Sun 11:52:00 AM 37.0550 -78.5092 50° Northeast  Level FlightAware Approximate
Sun 11:53:00 AM 37.1298 -78.3980 50° Northeast  Level FlightAware Approximate
Sun 11:53:15 AM 33.8667 -84.6333 345° North 264 304 5,000  Level Atlanta TRACON
Sun 11:54:00 AM 37.2045 -78.2866 50° Northeast  Level FlightAware Approximate
Sun 11:54:15 AM 33.8833 -84.5500 76° East 274 315 6,500  Level Atlanta TRACON
Sun 11:55:00 AM 37.2790 -78.1749 50° Northeast  Level FlightAware Approximate
Sun 11:55:15 AM 33.8833 -84.4500 90° East 297 342 7,700  Level Atlanta TRACON
Sun 11:56:00 AM 37.3535 -78.0631 50° Northeast  Level FlightAware Approximate
Sun 11:56:09 AM 33.8833 -84.3500 90° East 309 356 10,300  Level Atlanta TRACON
Sun 11:57:00 AM 37.4279 -77.9510 50° Northeast  Level FlightAware Approximate
Sun 11:57:03 AM 33.8833 -84.2667 90° East 315 362 12,900  Level Atlanta TRACON
Sun 11:58:09 AM 33.8833 -84.1333 90° East 373 429 13,400 957 Climbing Atlanta TRACON
Sun 12:00:30 PM 33.9047 -83.8261 85° East 408 470 16,200 1,284 Climbing Atlanta Center
Sun 12:01:30 PM 33.9253 -83.6908 80° East 413 475 17,700 1,200 Climbing Atlanta Center
Sun 12:02:30 PM 34.0000 -83.5778 51° Northeast 400 460 18,600 950 Climbing Atlanta Center
Sun 12:03:30 PM 34.0831 -83.4494 52° Northeast 424 488 19,600 1,000 Climbing Atlanta Center
Sun 12:04:30 PM 34.1594 -83.3283 53° Northeast 440 506 20,600 900 Climbing Atlanta Center
Sun 12:09:10 PM 34.4930 -82.8030 53° Northeast 100 115 24,700 776 Climbing FlightAware ADS-B
Sun 12:09:47 PM 34.5020 -82.8180 306° West 100 115 24,700  Level FlightAware ADS-B
Sun 12:10:48 PM 34.5150 -82.8420 303° West 100 115 24,700  Level FlightAware ADS-B
Sun 12:11:25 PM 34.5240 -82.8560 308° West 100 115 24,700  Level FlightAware ADS-B
Sun 12:11:37 PM 34.5270 -82.8610 306° West 100 115 24,700  Level FlightAware ADS-B
Sun 12:12:32 PM 34.5390 -82.8820 305° West 100 115 24,700  Level FlightAware ADS-B
Sun 12:13:09 PM 34.5470 -82.8970 303° West 100 115 24,700 2,949 Level FlightAware ADS-B
Sun 12:14:30 PM 34.9228 -82.1136 303° West 463 533 30,500 2,681 Climbing Atlanta Center
Sun 12:15:30 PM 35.0000 -81.9850 54° Northeast 463 533 31,000 250 Climbing Atlanta Center
Sun 12:16:30 PM 35.0792 -81.8483 55° Northeast 475 547 31,000 450 Level Atlanta Center
Sun 12:17:30 PM 35.1536 -81.7042 58° Northeast 488 562 31,900 896 Climbing Atlanta Center
Sun 12:22:25 PM 35.5080 -81.0150 58° Northeast 100 115 36,300 821 Climbing FlightAware ADS-B
Sun 12:23:21 PM 35.5440 -80.9480 57° Northeast 100 115 36,700 261 Climbing FlightAware ADS-B
Sun 12:23:57 PM 35.5520 -80.9340 55° Northeast 100 115 36,700  Level FlightAware ADS-B
Sun 12:24:33 PM 35.5600 -80.9190 57° Northeast 100 115 36,700  Level FlightAware ADS-B
Sun 12:25:34 PM 35.5730 -80.8950 56° Northeast 100 115 36,700  Level FlightAware ADS-B
Sun 12:26:24 PM 35.5840 -80.8750 56° Northeast 100 115 36,700  Level FlightAware ADS-B
Sun 12:27:01 PM 35.5930 -80.8600 54° Northeast 100 115 36,700  Level FlightAware ADS-B
Sun 12:27:37 PM 35.6000 -80.8450 60° Northeast 100 115 36,700  Level FlightAware ADS-B
Sun 12:28:12 PM 35.6080 -80.8310 55° Northeast 100 115 36,700  Level FlightAware ADS-B
Sun 12:28:48 PM 35.6160 -80.8170 55° Northeast 100 115 36,700  Level FlightAware ADS-B
Sun 12:29:25 PM 35.6240 -80.8020 57° Northeast 100 115 36,700  Level FlightAware ADS-B
Sun 12:30:13 PM 35.6350 -80.7830 55° Northeast 100 115 36,700  Level FlightAware ADS-B
Sun 12:31:15 PM 35.6480 -80.7580 57° Northeast 100 115 36,700  Level FlightAware ADS-B
Sun 12:32:15 PM 35.6620 -80.7340 54° Northeast 100 115 36,700  Level FlightAware ADS-B
Sun 12:32:51 PM 35.6700 -80.7190 57° Northeast 100 115 36,700 2,150 Level FlightAware ADS-B
Sun 12:34:15 PM 36.3842 -79.5058 57° Northeast 448 516 41,000 1,779 Climbing Washington Center
Sun 12:35:16 PM 36.4567 -79.3933 51° Northeast 453 521 41,000  Level Washington Center
Sun 12:36:16 PM 36.5506 -79.2608 49° Northeast 460 529 41,000  Level Washington Center
Sun 12:37:16 PM 36.6356 -79.1356 50° Northeast 466 536 41,000  Level Washington Center
Sun 12:38:14 PM 36.7228 -79.0125 48° Northeast 471 542 41,000  Level Washington Center
Sun 12:39:15 PM 36.8119 -78.8842 49° Northeast 471 542 41,000  Level Washington Center
Sun 12:40:15 PM 36.8900 -78.7706 49° Northeast 471 542 41,000  Level Washington Center
Sun 12:41:16 PM 36.9767 -78.6467 49° Northeast 471 542 41,000  Level Washington Center
Sun 12:42:14 PM 37.0656 -78.5175 49° Northeast 471 542 41,000  Level Washington Center
Sun 12:43:15 PM 37.1647 -78.3781 48° Northeast 477 549 41,000  Level Washington Center
Sun 12:44:15 PM 37.2611 -78.2639 43° Northeast 477 549 41,000  Level Washington Center
Sun 12:45:16 PM 37.3556 -78.1522 43° Northeast 471 542 41,000  Level Washington Center
Sun 12:46:16 PM 37.4539 -78.0328 44° Northeast 466 536 41,000  Level Washington Center
Sun 12:47:14 PM 37.5481 -77.9178 44° Northeast 466 536 41,000  Level Washington Center
Sun 12:48:16 PM 37.6442 -77.8000 44° Northeast 466 536 41,000  Level Washington Center
Sun 12:49:16 PM 37.7422 -77.6822 44° Northeast 472 543 41,000  Level Washington Center
Sun 12:50:16 PM 37.8358 -77.5639 45° Northeast 472 543 41,000  Level Washington Center
Sun 12:51:14 PM 37.9336 -77.4478 43° Northeast 472 543 41,000  Level Washington Center
Sun 12:52:14 PM 38.0272 -77.3264 46° Northeast 477 549 41,000  Level Washington Center
Sun 12:53:16 PM 38.1206 -77.2122 44° Northeast 470 541 41,000  Level Washington Center
Sun 12:54:16 PM 38.2139 -77.0928 45° Northeast 470 541 41,000  Level Washington Center
Sun 12:55:16 PM 38.3050 -76.9781 45° Northeast 470 541 41,000  Level Washington Center
Sun 12:56:14 PM 38.3981 -76.8633 44° Northeast 464 534 41,000  Level Washington Center
Sun 12:57:14 PM 38.4908 -76.7428 45° Northeast 457 526 41,000  Level Washington Center
Sun 12:58:15 PM 38.5817 -76.6300 44° Northeast 457 526 41,000  Level Washington Center
Sun 12:59:16 PM 38.6722 -76.5144 45° Northeast 457 526 41,000  Level Washington Center
Sun 01:00:16 PM 38.7647 -76.3958 45° Northeast 457 526 41,000  Level Washington Center
Sun 01:01:14 PM 38.8550 -76.2794 45° Northeast 462 532 41,000  Level Washington Center
Sun 01:02:14 PM 38.9494 -76.1603 44° Northeast 462 532 41,000  Level Washington Center
Sun 01:03:15 PM 39.0417 -76.0433 45° Northeast 462 532 41,000 -49 Level Washington Center
Sun 01:04:16 PM 39.1358 -75.9233 45° Northeast 462 532 40,900  Descending Washington Center
Sun 01:05:16 PM 39.2278 -75.8006 46° Northeast 462 532 41,000 51 Climbing Washington Center
Sun 01:06:14 PM 39.3217 -75.6775 45° Northeast 462 532 41,000  Level Washington Center
Sun 01:07:14 PM 39.4156 -75.5567 45° Northeast 462 532 41,000 -397 Level Washington Center
Sun 01:08:15 PM 39.5092 -75.4303 46° Northeast 462 532 40,200 -787 Descending Washington Center
Sun 01:09:16 PM 39.6111 -75.2981 45° Northeast 485 558 39,400 -843 Descending Washington Center
Sun 01:10:16 PM 39.7108 -75.1653 46° Northeast 500 575 38,500 -1,063 Descending Washington Center
Sun 01:12:11 PM 39.8925 -74.9186 46° Northeast 522 601 36,300 -1,200 Descending New York Center
Sun 01:13:11 PM 40.0019 -74.7678 47° Northeast 528 608 35,000 -800 Descending New York Center
Sun 01:14:11 PM 40.1047 -74.6272 46° Northeast 528 608 34,700 -763 Descending New York Center
Sun 01:15:09 PM 40.2114 -74.4892 45° Northeast 533 613 33,500 -864 Descending New York Center
Sun 01:16:09 PM 40.3233 -74.3672 40° Northeast 533 613 33,000 -793 Descending New York Center
Sun 01:17:10 PM 40.4258 -74.2197 48° Northeast 527 606 31,900 -1,657 Descending New York Center
Sun 01:19:10 PM 40.5642 -73.8789 62° Northeast 520 598 28,000 -1,826 Descending Boston Center
Sun 01:20:14 PM 40.6297 -73.7150 62° Northeast 509 586 26,300 -1,645 Descending Boston Center
Sun 01:21:14 PM 40.6906 -73.5569 63° Northeast 504 580 24,600 -1,636 Descending Boston Center
Sun 01:22:15 PM 40.7586 -73.3919 61° Northeast 498 573 23,000 -780 Descending Boston Center
Sun 01:23:17 PM 40.8336 -73.2603 53° Northeast 498 573 23,000 -787 Level Boston Center
Sun 01:24:17 PM 40.9586 -73.1131 42° Northeast 504 580 21,400 -1,450 Descending Boston Center
Sun 01:25:17 PM 41.0633 -73.0069 37° Northeast 479 551 20,100 -1,152 Descending Boston Center
Sun 01:26:22 PM 41.1656 -72.9283 30° Northeast 457 526 19,000 -528 Descending Boston Center
Sun 01:27:22 PM 41.2914 -72.8303 30° Northeast 456 525 19,000 -496 Level Boston Center
Sun 01:28:23 PM 41.3975 -72.7450 31° Northeast 447 514 18,000 -1,884 Descending Boston Center
Sun 01:29:23 PM 41.4936 -72.6678 31° Northeast 409 471 15,200 -1,452 Descending Boston Center
Sun 01:30:27 PM 41.5886 -72.5922 31° Northeast 374 430 15,000 -158 Descending Boston Center
Sun 01:30:39 PM 41.6083 -72.5761 31° Northeast 376 433 15,000 -984 Level Boston Center
Sun 01:31:28 PM 41.6781 -72.5092 36° Northeast 390 449 14,000 -1,233 Descending Boston Center
Sun 01:31:52 PM 41.7086 -72.4736 41° Northeast 391 450 13,500 -1,300 Descending Boston Center
Sun 01:32:28 PM 41.7592 -72.4203 38° Northeast 382 440 12,700 -1,400 Descending Boston Center
Sun 01:32:52 PM 41.7939 -72.3800 41° Northeast 367 422 12,100 -1,377 Descending Boston Center
Sun 01:33:29 PM 41.8431 -72.3272 39° Northeast 369 425 11,300 -1,377 Descending Boston Center
Sun 01:33:53 PM 41.8736 -72.2928 40° Northeast 371 427 10,700 -1,238 Descending Boston Center
Sun 01:34:32 PM 41.9197 -72.2397 41° Northeast 363 418 10,000 -1,091 Descending Boston Center
Sun 01:34:59 PM 41.9486 -72.2067 40° Northeast 297 342 9,500 -1,400 Descending Boston Center
Sun 01:35:32 PM 41.9839 -72.1667 40° Northeast 305 351 8,600 -1,385 Descending Boston Center
Sun 01:35:51 PM 42.0064 -72.1431 38° Northeast 318 366 8,300 -1,082 Descending Boston Center
Sun 01:36:33 PM 42.0558 -72.0836 42° Northeast 313 360 7,500 -1,100 Descending Boston Center
Sun 01:36:51 PM 42.0706 -72.0675 39° Northeast 305 351 7,200 -896 Descending Boston Center
Sun 01:37:40 PM 42.1206 -72.0097 41° Northeast 276 318 6,500 -1,038 Descending Boston Center
Sun 01:38:35 PM 42.1792 -71.9472 38° Northeast 290 334 5,400 -1,233 Descending Boston Center
Sun 01:38:53 PM 42.1939 -71.9311 39° Northeast 289 333 5,000 -476 Descending Boston Center
Sun 01:39:38 PM 42.2417 -71.8772 40° Northeast 288 331 4,900  Descending Boston Center
Sun 01:39:48 PM 42.2508 -71.8697 31° Northeast 285 328 5,000  Climbing Boston Center
Sun 01:40:39 PM 42.3017 -71.8089 42° Northeast 285 328 4,900  Descending Boston Center
Sun 01:41:00 PM 42.3225 -71.7872 38° Northeast 277 319 5,000 100 Climbing Boston Center
Sun 01:41:39 PM 42.3631 -71.7406 40° Northeast 279 321 5,000  Level Boston Center
Sun 01:42:40 PM 42.3969 -71.6483 64° Northeast 282 325 5,000 -425 Level Boston Center
Sun 01:43:32 PM 42.4333 -71.5667 59° Northeast 278 320 4,200 -1,132 Descending KA90
Sun 01:44:26 PM 42.4667 -71.4833 62° Northeast 253 291 3,000 -722 Descending KA90
Sun 01:45:20 PM 42.5000 -71.4167 56° Northeast 222 255 2,900 -316 Descending KA90
Sun 01:46:20 PM 42.5000 -71.3500 90° East 221 254 2,400 -500 Descending KA90
Sun 01:47:20 PM 42.5000 -71.2667 90° East 219 252 1,900 -550 Descending KA90
Sun 01:48:20 PM 42.4833 -71.2167 114° Southeast 157 181 1,300 -700 Descending KA90
Sun 01:49:20 PM 42.4667 -71.2500 236° Southwest 125 144 500 -800 Descending KA90
Sun 01:51:00 PM 42.4667 -71.2833 270° West  Level FlightAware Approximate
Sun 01:58:00 PM 42.4699 -71.2890 270° West  Level Estimated

Login

Don't have an account? Register now (free) for customized features, flight alerts, and more!